الصفحة الرئيسية
METAR-TAF:

METAR-TAF

مطار :

مطار برج باجي مختار

برج باجي مختار, الجزائر

دائرة عرض: 21-22-30N, خط طول: 000-55-26E, ارتفاع: 396 متر

مراقبة الطقس الحالي

تاريخ ووقت الإصدار 1ساعة و 9 دقيقة قبل الساعة 16:00UTC
ريح 18 عقدة من الجنوب الغربي
درجة الحرارة 36°درجة مئوية
الرطوبة 10%
ضغط 1011 hPa
الرؤية 10 كم أو أكثر
الغيوم لا تقل 1500 م ولا وجود لمزنة ركامية السحاب الأسود

METAR: DATM 241600Z 22018KT CAVOK 36/00 Q1011

زمن: 18:09 (17:09 UTC)

توقعات

تاريخ ووقت الإصدار 3ساعات و 9 دقيقة قبل الساعة 14:00UTC
التوقعات صالحة من24 الساعة 15 UTC إلى 24 الساعة 24 UTC
ريح 12 عقدة من الغرب/الشمال الغربي
الرؤية 10 كم أو أكثر
الغيوم لا تقل 1500 م ولا وجود لمزنة ركامية السحاب الأسود

TAF: DATM 241400Z 2415/2424 30012KT CAVOK

أرصاد الطقس والتوقعات من أكثر من 4000 مطار (تقارير الطقس للمطار METAR والتنبؤ بالطقس بالمطارTAF).

المحطات المتاحة هي النقط الصفراء والحمراء على الخريطة.

حرك المؤشر فوق النقطة لمعرفة اسم المحطة.

ثم انقر لمعرفة أرصاد وتوقعات الطقس.

لتغيير الخارطة: اضغط على الأزرار الخضراء مع رمز الصليب الأسود للتكبير. على الزر الأخضر مع شرطة للتصغير، أو على الأسهم الخضراء للخرائط المجاورة.


METAR-TAF: